Imperial, California
Current Conditions -  °F | °C
As of 5:53 AM on Friday 24 Oct 2014 (Local Time) from KIPL Reporting Station
Clear Clear  
Wind Chill: 18°   Ceiling: Unl
Heat Index: 18°   Visibility: 10mi
Dew Point:   Wind: 3mph
Humidity: 48%   Direction: 220°SW
Pressure: 29.92"   Gusts: NA
Location:  32.85°N, 115.57°W
Report Text: KIPL 241253Z AUTO 22003KT 10SM CLR 18/07 A2992 RMK AO2 SLP132 T01780067
Loading
Personal Weather Stations






























Interactive Weather Map
Tropical Storm Tracking
New forecast layout! Learn more

10-Day Weather Forecast

Advertisements
Track Severe Weather on mobile